createdAt,value
2023-04-08T00:00:08.691Z,23.21
2023-04-08T00:01:02.217Z,23.09
2023-04-08T00:01:54.112Z,23.43
2023-04-08T00:02:45.884Z,23.40
2023-04-08T00:03:37.887Z,23.40
2023-04-08T00:04:31.769Z,23.15
2023-04-08T00:05:23.274Z,23.52
2023-04-08T00:06:14.699Z,25.38
2023-04-08T00:07:06.304Z,23.12
2023-04-08T00:07:57.738Z,23.51
2023-04-08T00:08:49.516Z,24.61
2023-04-08T00:09:41.369Z,24.34
2023-04-08T00:10:33.602Z,24.54
2023-04-08T00:11:25.204Z,23.17
2023-04-08T00:12:16.675Z,24.09
2023-04-08T00:13:08.084Z,23.83
2023-04-08T00:14:00.193Z,23.55
2023-04-08T00:14:52.323Z,23.29
2023-04-08T00:15:46.239Z,23.45
2023-04-08T00:16:37.651Z,23.96
2023-04-08T00:17:29.222Z,24.11
2023-04-08T00:18:20.832Z,24.67
2023-04-08T00:19:12.413Z,24.39
2023-04-08T00:20:04.812Z,24.35
2023-04-08T00:20:57.301Z,24.78
2023-04-08T00:21:48.862Z,23.85
2023-04-08T00:22:40.294Z,24.70
2023-04-08T00:23:31.721Z,24.70
2023-04-08T00:24:25.573Z,24.99
2023-04-08T00:25:19.582Z,24.89
2023-04-08T00:26:11.134Z,23.36
2023-04-08T00:27:05.604Z,23.30
2023-04-08T00:28:00.299Z,23.87
2023-04-08T00:28:53.609Z,24.26
2023-04-08T00:29:45.144Z,24.16
2023-04-08T00:30:37.057Z,24.72
2023-04-08T00:31:31.360Z,24.58
2023-04-08T00:32:23.854Z,25.53
2023-04-08T00:33:17.523Z,25.57
2023-04-08T00:34:09.058Z,25.13
2023-04-08T00:35:00.519Z,25.36
2023-04-08T00:35:52.748Z,24.91
2023-04-08T00:36:45.562Z,25.72
2023-04-08T00:37:37.438Z,26.29
2023-04-08T00:38:28.900Z,25.26
2023-04-08T00:39:20.300Z,25.29
2023-04-08T00:40:12.603Z,24.47
2023-04-08T00:41:04.068Z,24.87
2023-04-08T00:41:56.410Z,26.50
2023-04-08T00:42:48.413Z,26.40
2023-04-08T00:43:40.102Z,26.48
2023-04-08T00:44:32.440Z,26.85
2023-04-08T00:45:23.959Z,27.13
2023-04-08T00:46:16.124Z,26.72
2023-04-08T00:47:10.035Z,26.87
2023-04-08T00:48:03.596Z,26.82
2023-04-08T00:48:55.971Z,26.87
2023-04-08T00:49:47.467Z,24.64
2023-04-08T00:50:38.858Z,24.52
2023-04-08T00:51:36.282Z,26.33
2023-04-08T00:52:27.896Z,25.28
2023-04-08T00:53:19.836Z,26.09
2023-04-08T00:54:14.438Z,27.01
2023-04-08T00:55:08.815Z,26.44
2023-04-08T00:56:01.265Z,25.46
2023-04-08T00:56:53.015Z,25.14
2023-04-08T00:57:45.571Z,25.51
2023-04-08T00:58:38.996Z,26.31
2023-04-08T00:59:34.319Z,24.53
2023-04-08T01:00:29.494Z,27.10
2023-04-08T01:01:47.864Z,25.71
2023-04-08T01:03:01.137Z,26.28
2023-04-08T01:04:22.269Z,26.77
2023-04-08T01:05:41.993Z,26.23
2023-04-08T01:07:12.210Z,27.13
2023-04-08T01:08:10.125Z,26.84
2023-04-08T01:09:05.941Z,25.48
2023-04-08T01:10:15.795Z,24.80
2023-04-08T01:11:13.754Z,25.99
2023-04-08T01:12:09.449Z,26.25
2023-04-08T01:13:12.174Z,26.73
2023-04-08T01:14:10.126Z,25.85
2023-04-08T01:15:08.173Z,25.30
2023-04-08T01:15:59.856Z,26.38
2023-04-08T01:16:56.868Z,25.90
2023-04-08T01:17:53.702Z,25.42
2023-04-08T01:18:48.985Z,24.24
2023-04-08T01:19:44.705Z,25.34
2023-04-08T01:20:38.715Z,24.87
2023-04-08T01:21:30.670Z,25.31
2023-04-08T01:22:32.821Z,25.37
2023-04-08T01:23:53.114Z,25.83
2023-04-08T01:24:47.347Z,25.65
2023-04-08T01:25:39.749Z,25.83
2023-04-08T01:26:32.459Z,26.29
2023-04-08T01:27:24.766Z,26.07
2023-04-08T01:28:26.699Z,25.31
2023-04-08T01:29:19.653Z,25.68
2023-04-08T01:30:13.718Z,25.97
2023-04-08T01:31:07.473Z,24.74
2023-04-08T01:32:01.881Z,24.90
2023-04-08T01:32:56.126Z,25.13
2023-04-08T01:33:50.688Z,24.79
2023-04-08T01:34:44.867Z,24.66
2023-04-08T01:35:37.605Z,24.62
2023-04-08T01:36:32.698Z,24.39
2023-04-08T01:37:28.275Z,26.62
2023-04-08T01:38:21.164Z,25.32
2023-04-08T01:39:17.362Z,25.09
2023-04-08T01:40:18.474Z,24.94
2023-04-08T01:41:11.496Z,25.84
2023-04-08T01:42:03.852Z,25.89
2023-04-08T01:43:00.967Z,25.03
2023-04-08T01:43:54.574Z,24.22
2023-04-08T01:44:47.842Z,24.87
2023-04-08T01:45:43.883Z,25.86
2023-04-08T01:46:36.345Z,25.05
2023-04-08T01:47:29.971Z,26.24
2023-04-08T01:48:23.632Z,26.39
2023-04-08T01:49:17.510Z,28.39
2023-04-08T01:50:10.732Z,25.98
2023-04-08T01:51:05.469Z,25.73
2023-04-08T01:52:00.317Z,24.26
2023-04-08T01:52:54.364Z,24.52
2023-04-08T01:53:46.340Z,24.88
2023-04-08T01:54:38.131Z,23.95
2023-04-08T01:55:31.991Z,24.87
2023-04-08T01:56:29.047Z,25.30
2023-04-08T01:57:27.315Z,24.36
2023-04-08T01:58:22.510Z,24.09
2023-04-08T01:59:16.983Z,24.08
2023-04-08T02:00:12.310Z,23.22
2023-04-08T02:01:27.015Z,25.31
2023-04-08T02:02:22.609Z,24.40
2023-04-08T02:03:18.803Z,25.55
2023-04-08T02:04:12.854Z,25.03
2023-04-08T02:05:04.850Z,24.52
2023-04-08T02:05:56.366Z,26.45
2023-04-08T02:06:48.449Z,26.12
2023-04-08T02:07:40.380Z,25.87
2023-04-08T02:08:36.939Z,26.12
2023-04-08T02:09:28.527Z,26.53
2023-04-08T02:10:20.256Z,25.49
2023-04-08T02:11:12.594Z,26.55
2023-04-08T02:12:04.616Z,26.37
2023-04-08T02:12:57.043Z,27.03
2023-04-08T02:13:49.220Z,27.54
2023-04-08T02:14:41.001Z,26.32
2023-04-08T02:15:42.009Z,25.85
2023-04-08T02:16:50.105Z,26.60
2023-04-08T02:17:43.906Z,27.26
2023-04-08T02:18:42.826Z,26.32
2023-04-08T02:19:46.835Z,25.71
2023-04-08T02:20:44.296Z,26.67
2023-04-08T02:21:47.309Z,27.94
2023-04-08T02:22:48.741Z,27.31
2023-04-08T02:23:42.776Z,27.79
2023-04-08T02:24:37.307Z,28.00
2023-04-08T02:25:30.600Z,27.80
2023-04-08T02:26:24.528Z,27.37
2023-04-08T02:27:17.506Z,26.65
2023-04-08T02:28:12.538Z,26.42
2023-04-08T02:29:05.802Z,26.90
2023-04-08T02:29:59.900Z,27.15
2023-04-08T02:30:53.292Z,26.72
2023-04-08T02:31:47.026Z,26.65
2023-04-08T02:32:40.292Z,26.47
2023-04-08T02:33:36.681Z,26.55
2023-04-08T02:34:30.767Z,26.31
2023-04-08T02:35:23.731Z,26.26
2023-04-08T02:36:16.472Z,27.32
2023-04-08T02:37:09.181Z,26.24
2023-04-08T02:38:03.211Z,25.38
2023-04-08T02:38:54.922Z,26.24
2023-04-08T02:39:47.721Z,25.05
2023-04-08T02:40:39.315Z,25.27
2023-04-08T02:41:31.404Z,26.20
2023-04-08T02:42:24.986Z,25.84
2023-04-08T02:43:19.904Z,26.10
2023-04-08T02:44:11.379Z,25.41
2023-04-08T02:45:06.400Z,24.70
2023-04-08T02:46:00.397Z,24.74
2023-04-08T02:46:51.944Z,25.71
2023-04-08T02:47:43.416Z,24.37
2023-04-08T02:48:34.861Z,25.15
2023-04-08T02:49:26.527Z,25.25
2023-04-08T02:50:18.048Z,24.49
2023-04-08T02:51:09.584Z,24.45
2023-04-08T02:52:01.387Z,24.72
2023-04-08T02:52:53.099Z,24.29
2023-04-08T02:53:44.544Z,24.55
2023-04-08T02:54:36.216Z,24.18
2023-04-08T02:55:30.770Z,23.07
2023-04-08T02:56:25.597Z,24.13
2023-04-08T02:57:17.429Z,25.43
2023-04-08T02:58:08.965Z,23.13
2023-04-08T02:59:00.808Z,24.48
2023-04-08T02:59:52.285Z,25.09
2023-04-08T03:00:44.181Z,25.30
2023-04-08T03:01:36.165Z,24.51
2023-04-08T03:02:27.819Z,25.13
2023-04-08T03:03:23.186Z,24.32
2023-04-08T03:04:14.754Z,24.75
2023-04-08T03:05:06.685Z,24.27
2023-04-08T03:05:58.767Z,24.95
2023-04-08T03:06:50.183Z,24.41
2023-04-08T03:07:41.613Z,24.63
2023-04-08T03:08:33.632Z,24.49
2023-04-08T03:09:28.133Z,24.23
2023-04-08T03:10:19.863Z,23.35
2023-04-08T03:11:11.342Z,24.88
2023-04-08T03:12:02.811Z,25.83
2023-04-08T03:12:56.962Z,25.46
2023-04-08T03:13:48.383Z,25.48
2023-04-08T03:14:39.897Z,25.09
2023-04-08T03:15:31.335Z,24.99
2023-04-08T03:16:22.894Z,24.76
2023-04-08T03:17:14.351Z,24.05
2023-04-08T03:18:06.094Z,25.16
2023-04-08T03:18:57.594Z,25.55
2023-04-08T03:19:49.139Z,24.89
2023-04-08T03:20:40.634Z,26.45
2023-04-08T03:21:32.606Z,25.24
2023-04-08T03:22:24.581Z,24.80
2023-04-08T03:23:16.376Z,25.53
2023-04-08T03:24:07.866Z,26.21
2023-04-08T03:24:59.246Z,26.19
2023-04-08T03:25:50.734Z,24.85
2023-04-08T03:26:44.486Z,25.99
2023-04-08T03:27:38.419Z,27.56
2023-04-08T03:28:30.070Z,27.11
2023-04-08T03:29:21.538Z,25.70
2023-04-08T03:30:13.109Z,26.55
2023-04-08T03:31:04.931Z,27.41
2023-04-08T03:31:56.766Z,25.21
2023-04-08T03:32:48.303Z,26.04
2023-04-08T03:33:39.738Z,26.44
2023-04-08T03:34:33.700Z,25.86
2023-04-08T03:35:25.330Z,26.10
2023-04-08T03:36:16.799Z,26.12
2023-04-08T03:37:12.943Z,24.46
2023-04-08T03:38:04.852Z,26.53
2023-04-08T03:38:56.366Z,26.92
2023-04-08T03:39:47.869Z,26.31
2023-04-08T03:40:43.594Z,26.67
2023-04-08T03:41:34.976Z,26.41
2023-04-08T03:42:27.135Z,26.15
2023-04-08T03:43:21.873Z,25.83
2023-04-08T03:44:13.310Z,25.61
2023-04-08T03:45:05.543Z,26.23
2023-04-08T03:45:56.964Z,26.72
2023-04-08T03:46:48.411Z,26.54
2023-04-08T03:47:41.386Z,25.55
2023-04-08T03:48:32.972Z,25.35
2023-04-08T03:49:24.799Z,25.04
2023-04-08T03:50:16.278Z,24.68
2023-04-08T03:51:09.200Z,25.37
2023-04-08T03:52:00.766Z,25.32
2023-04-08T03:52:52.503Z,26.28
2023-04-08T03:53:47.141Z,26.01
2023-04-08T03:54:38.677Z,26.79
2023-04-08T03:55:30.168Z,25.96
2023-04-08T03:56:21.856Z,25.91
2023-04-08T03:57:13.453Z,25.81
2023-04-08T03:58:05.019Z,25.93
2023-04-08T03:58:56.496Z,24.65
2023-04-08T03:59:47.906Z,26.00
2023-04-08T04:00:39.780Z,27.52
2023-04-08T04:01:32.286Z,27.43
2023-04-08T04:02:23.973Z,25.91
2023-04-08T04:03:15.740Z,25.65
2023-04-08T04:04:07.629Z,26.28
2023-04-08T04:04:59.333Z,25.71
2023-04-08T04:05:51.105Z,26.58
2023-04-08T04:06:42.618Z,25.26
2023-04-08T04:07:34.069Z,25.11
2023-04-08T04:08:25.850Z,25.11
2023-04-08T04:09:17.443Z,25.52
2023-04-08T04:10:10.345Z,25.19
2023-04-08T04:11:01.975Z,25.20
2023-04-08T04:11:53.744Z,25.92
2023-04-08T04:12:45.995Z,25.79
2023-04-08T04:13:37.509Z,25.55
2023-04-08T04:14:28.920Z,25.65
2023-04-08T04:15:20.412Z,25.26
2023-04-08T04:16:11.858Z,25.94
2023-04-08T04:17:03.401Z,24.40
2023-04-08T04:17:54.925Z,26.27
2023-04-08T04:18:46.694Z,26.06
2023-04-08T04:19:40.778Z,24.70
2023-04-08T04:20:32.374Z,24.03
2023-04-08T04:21:23.852Z,25.78
2023-04-08T04:22:16.653Z,27.97
2023-04-08T04:23:09.107Z,26.70
2023-04-08T04:24:00.828Z,26.91
2023-04-08T04:24:52.278Z,26.91
2023-04-08T04:25:44.290Z,27.23
2023-04-08T04:26:35.766Z,26.97
2023-04-08T04:27:27.193Z,26.44
2023-04-08T04:28:18.574Z,26.16
2023-04-08T04:29:10.342Z,26.86
2023-04-08T04:30:01.722Z,26.11
2023-04-08T04:30:55.306Z,26.31
2023-04-08T04:31:47.864Z,27.17
2023-04-08T04:32:39.303Z,27.41
2023-04-08T04:33:31.664Z,28.10
2023-04-08T04:34:23.470Z,26.64
2023-04-08T04:35:14.967Z,25.93
2023-04-08T04:36:08.094Z,26.93
2023-04-08T04:36:59.780Z,26.62
2023-04-08T04:37:51.858Z,27.32
2023-04-08T04:38:44.574Z,27.34
2023-04-08T04:39:36.257Z,26.37
2023-04-08T04:40:27.698Z,26.55
2023-04-08T04:41:19.105Z,26.20
2023-04-08T04:42:10.617Z,27.60
2023-04-08T04:43:02.281Z,27.57
2023-04-08T04:43:53.818Z,27.52
2023-04-08T04:44:45.277Z,28.08
2023-04-08T04:45:36.629Z,27.51
2023-04-08T04:46:28.274Z,28.58
2023-04-08T04:47:22.938Z,28.66
2023-04-08T04:48:14.425Z,28.07
2023-04-08T04:49:06.349Z,26.21
2023-04-08T04:49:57.972Z,28.36
2023-04-08T04:51:01.103Z,27.67
2023-04-08T04:51:52.969Z,27.19
2023-04-08T04:52:44.705Z,27.58
2023-04-08T04:53:40.332Z,27.81
2023-04-08T04:54:37.191Z,27.53
2023-04-08T04:55:28.660Z,29.03
2023-04-08T04:56:21.137Z,28.83
2023-04-08T04:57:12.536Z,29.75
2023-04-08T04:58:05.082Z,29.03
2023-04-08T04:58:56.618Z,28.65
2023-04-08T04:59:50.088Z,28.49
2023-04-08T05:00:41.578Z,29.42
2023-04-08T05:01:33.063Z,28.61
2023-04-08T05:02:24.743Z,28.52
2023-04-08T05:03:16.523Z,29.68
2023-04-08T05:04:10.685Z,29.73
2023-04-08T05:05:02.374Z,29.09
2023-04-08T05:05:54.600Z,29.89
2023-04-08T05:06:46.080Z,28.93
2023-04-08T05:07:38.810Z,28.74
2023-04-08T05:08:30.438Z,29.90
2023-04-08T05:09:21.869Z,27.71
2023-04-08T05:10:13.455Z,29.71
2023-04-08T05:11:12.767Z,29.82
2023-04-08T05:12:04.679Z,29.75
2023-04-08T05:12:56.168Z,29.16
2023-04-08T05:13:47.882Z,29.42
2023-04-08T05:14:41.367Z,28.38
2023-04-08T05:15:32.755Z,28.89
2023-04-08T05:16:24.219Z,28.95
2023-04-08T05:17:15.765Z,28.52
2023-04-08T05:18:07.505Z,30.28
2023-04-08T05:18:59.381Z,28.31
2023-04-08T05:19:53.146Z,27.81
2023-04-08T05:20:44.671Z,28.97
2023-04-08T05:21:36.386Z,29.83
2023-04-08T05:22:27.864Z,29.92
2023-04-08T05:23:19.274Z,27.57
2023-04-08T05:24:10.888Z,28.30
2023-04-08T05:25:02.610Z,27.26
2023-04-08T05:25:54.437Z,27.50
2023-04-08T05:26:46.376Z,28.02
2023-04-08T05:27:38.391Z,27.51
2023-04-08T05:28:29.784Z,26.64
2023-04-08T05:29:22.005Z,26.19
2023-04-08T05:30:13.637Z,28.52
2023-04-08T05:31:05.202Z,27.11
2023-04-08T05:31:59.218Z,27.45
2023-04-08T05:32:51.067Z,30.45
2023-04-08T05:33:42.659Z,29.03
2023-04-08T05:34:34.166Z,28.11
2023-04-08T05:35:25.578Z,28.93
2023-04-08T05:36:17.333Z,29.28
2023-04-08T05:37:08.829Z,28.39
2023-04-08T05:38:03.202Z,26.69
2023-04-08T05:38:54.840Z,27.05
2023-04-08T05:39:49.223Z,26.90
2023-04-08T05:40:40.809Z,26.91
2023-04-08T05:41:33.294Z,26.47
2023-04-08T05:42:24.804Z,27.39
2023-04-08T05:43:16.282Z,27.83
2023-04-08T05:44:07.764Z,28.14
2023-04-08T05:44:59.296Z,26.73
2023-04-08T05:45:51.424Z,26.42
2023-04-08T05:46:43.005Z,25.93
2023-04-08T05:47:37.512Z,26.06
2023-04-08T05:48:31.332Z,26.17
2023-04-08T05:49:23.979Z,25.81
2023-04-08T05:50:15.753Z,25.31
2023-04-08T05:51:08.739Z,24.25
2023-04-08T05:52:00.586Z,26.10
2023-04-08T05:52:54.818Z,26.02
2023-04-08T05:53:49.044Z,25.80
2023-04-08T05:54:43.805Z,26.38
2023-04-08T05:55:35.663Z,26.63
2023-04-08T05:56:27.189Z,26.09
2023-04-08T05:57:18.679Z,26.93
2023-04-08T05:58:10.121Z,26.01
2023-04-08T05:59:01.590Z,26.56
2023-04-08T05:59:53.344Z,26.95
2023-04-08T06:00:45.100Z,26.48
2023-04-08T06:01:36.650Z,25.41
2023-04-08T06:02:28.321Z,24.14
2023-04-08T06:03:21.244Z,26.10
2023-04-08T06:04:14.305Z,27.01
2023-04-08T06:05:06.550Z,24.67
2023-04-08T06:05:58.274Z,24.87
2023-04-08T06:06:49.732Z,25.40
2023-04-08T06:07:42.674Z,25.30
2023-04-08T06:08:34.110Z,25.86
2023-04-08T06:09:26.030Z,24.21
2023-04-08T06:10:20.626Z,24.24
2023-04-08T06:11:12.761Z,24.17
2023-04-08T06:12:04.611Z,24.62
2023-04-08T06:12:56.265Z,25.35
2023-04-08T06:13:50.580Z,26.07
2023-04-08T06:14:42.081Z,24.88
2023-04-08T06:15:35.869Z,24.88
2023-04-08T06:16:27.754Z,24.25
2023-04-08T06:17:19.147Z,25.61
2023-04-08T06:18:10.872Z,24.84
2023-04-08T06:19:02.352Z,26.04
2023-04-08T06:19:55.323Z,26.56
2023-04-08T06:20:46.901Z,27.03
2023-04-08T06:21:38.494Z,25.09
2023-04-08T06:22:30.347Z,25.49
2023-04-08T06:23:21.738Z,25.63
2023-04-08T06:24:13.258Z,24.90
2023-04-08T06:25:05.272Z,24.77
2023-04-08T06:25:56.766Z,24.03
2023-04-08T06:26:48.179Z,24.29
2023-04-08T06:27:39.595Z,24.36
2023-04-08T06:28:32.095Z,25.70
2023-04-08T06:29:24.814Z,26.59
2023-04-08T06:30:16.789Z,24.31
2023-04-08T06:31:08.445Z,25.13
2023-04-08T06:32:00.001Z,23.26
2023-04-08T06:32:51.600Z,23.23
2023-04-08T06:33:43.059Z,23.61
2023-04-08T06:34:34.521Z,23.00
2023-04-08T06:35:28.533Z,24.61
2023-04-08T06:36:20.419Z,24.22
2023-04-08T06:37:12.056Z,24.17
2023-04-08T06:38:04.029Z,23.45
2023-04-08T06:38:55.788Z,23.71
2023-04-08T06:39:47.550Z,24.06
2023-04-08T06:40:40.301Z,24.71
2023-04-08T06:41:31.724Z,23.50
2023-04-08T06:42:29.270Z,24.11
2023-04-08T06:43:37.957Z,23.68
2023-04-08T06:44:29.604Z,23.00
2023-04-08T06:45:21.371Z,23.37
2023-04-08T06:46:12.955Z,23.30
2023-04-08T06:47:04.472Z,22.86
2023-04-08T06:47:57.689Z,23.41
2023-04-08T06:48:50.809Z,23.38
2023-04-08T06:49:42.598Z,22.67
2023-04-08T06:50:34.138Z,22.04
2023-04-08T06:51:25.973Z,22.20
2023-04-08T06:52:18.930Z,21.29
2023-04-08T06:53:10.558Z,22.16
2023-04-08T06:54:02.238Z,23.95
2023-04-08T06:54:53.855Z,23.50
2023-04-08T06:55:46.481Z,22.79
2023-04-08T06:56:37.989Z,23.02
2023-04-08T06:57:29.493Z,22.47
2023-04-08T06:58:21.335Z,22.82
2023-04-08T06:59:13.114Z,22.49
2023-04-08T07:00:05.333Z,22.75
2023-04-08T07:00:57.231Z,23.76
2023-04-08T07:01:48.732Z,22.67
2023-04-08T07:02:40.347Z,23.63
2023-04-08T07:03:32.132Z,23.44
2023-04-08T07:04:23.922Z,23.78
2023-04-08T07:05:16.598Z,24.24
2023-04-08T07:06:10.475Z,24.50
2023-04-08T07:07:02.428Z,23.75
2023-04-08T07:07:54.004Z,24.16
2023-04-08T07:08:45.741Z,23.36
2023-04-08T07:09:37.099Z,23.46
2023-04-08T07:10:28.960Z,22.34
2023-04-08T07:11:21.427Z,23.31
2023-04-08T07:12:13.025Z,22.98
2023-04-08T07:13:04.637Z,23.09
2023-04-08T07:13:56.232Z,23.78
2023-04-08T07:14:47.829Z,24.16
2023-04-08T07:15:39.472Z,23.58
2023-04-08T07:16:30.931Z,23.59
2023-04-08T07:17:22.590Z,23.66
2023-04-08T07:18:14.113Z,23.07
2023-04-08T07:19:05.617Z,23.51
2023-04-08T07:19:57.867Z,23.92
2023-04-08T07:20:53.962Z,23.62
2023-04-08T07:21:45.864Z,23.69
2023-04-08T07:22:40.373Z,23.98
2023-04-08T07:23:31.756Z,22.54
2023-04-08T07:24:23.689Z,23.63
2023-04-08T07:25:15.991Z,24.55
2023-04-08T07:26:07.827Z,24.76
2023-04-08T07:26:59.520Z,23.06
2023-04-08T07:27:52.686Z,22.77
2023-04-08T07:28:46.220Z,22.84
2023-04-08T07:29:37.855Z,24.47
2023-04-08T07:30:29.314Z,25.06
2023-04-08T07:31:21.022Z,23.41
2023-04-08T07:32:12.710Z,23.49
2023-04-08T07:33:04.410Z,24.31
2023-04-08T07:33:56.422Z,25.32
2023-04-08T07:34:48.340Z,24.38
2023-04-08T07:35:42.370Z,23.84
2023-04-08T07:36:34.005Z,24.38
2023-04-08T07:37:25.905Z,25.23
2023-04-08T07:38:17.330Z,24.84
2023-04-08T07:39:08.915Z,25.91
2023-04-08T07:40:00.437Z,23.92
2023-04-08T07:40:52.039Z,24.26
2023-04-08T07:41:43.419Z,25.16
2023-04-08T07:42:34.900Z,23.98
2023-04-08T07:43:26.706Z,24.28
2023-04-08T07:44:19.883Z,25.30
2023-04-08T07:45:12.011Z,25.69
2023-04-08T07:46:06.754Z,25.35
2023-04-08T07:46:58.330Z,25.73
2023-04-08T07:47:49.837Z,26.72
2023-04-08T07:48:41.409Z,28.18
2023-04-08T07:49:33.086Z,26.65
2023-04-08T07:50:24.594Z,26.52
2023-04-08T07:51:16.175Z,27.28
2023-04-08T07:52:12.229Z,26.67
2023-04-08T07:53:03.960Z,28.02
2023-04-08T07:53:55.782Z,28.14
2023-04-08T07:54:47.218Z,26.37
2023-04-08T07:55:40.280Z,26.95
2023-04-08T07:56:31.969Z,26.76
2023-04-08T07:57:23.532Z,26.54
2023-04-08T07:58:15.114Z,26.96
2023-04-08T07:59:07.156Z,27.73
2023-04-08T07:59:58.833Z,28.52
2023-04-08T08:00:50.426Z,28.16
2023-04-08T08:01:42.277Z,27.12
2023-04-08T08:02:34.386Z,27.84
2023-04-08T08:03:26.609Z,28.29
2023-04-08T08:04:18.572Z,28.47
2023-04-08T08:05:10.397Z,28.12
2023-04-08T08:06:02.033Z,28.32
2023-04-08T08:06:53.639Z,27.45
2023-04-08T08:07:45.455Z,26.81
2023-04-08T08:08:36.969Z,26.62
2023-04-08T08:09:29.248Z,26.31
2023-04-08T08:10:21.777Z,27.32
2023-04-08T08:11:13.333Z,27.45
2023-04-08T08:12:04.851Z,27.65
2023-04-08T08:12:56.241Z,26.51
2023-04-08T08:13:48.009Z,27.76
2023-04-08T08:14:39.733Z,28.09
2023-04-08T08:15:31.601Z,28.57
2023-04-08T08:16:23.138Z,27.37
2023-04-08T08:17:14.872Z,28.16
2023-04-08T08:18:06.410Z,28.02
2023-04-08T08:18:58.414Z,27.63
2023-04-08T08:19:50.099Z,27.62
2023-04-08T08:20:41.720Z,28.75
2023-04-08T08:21:35.538Z,28.29
2023-04-08T08:22:27.598Z,27.96
2023-04-08T08:23:19.101Z,27.24
2023-04-08T08:24:10.731Z,27.54
2023-04-08T08:25:02.445Z,27.88
2023-04-08T08:26:10.672Z,28.61
2023-04-08T08:27:04.364Z,27.56
2023-04-08T08:27:57.925Z,27.68
2023-04-08T08:28:51.781Z,28.81
2023-04-08T08:29:43.157Z,28.01
2023-04-08T08:30:34.968Z,28.93
2023-04-08T08:31:26.758Z,28.24
2023-04-08T08:32:18.964Z,28.21
2023-04-08T08:33:10.625Z,27.84
2023-04-08T08:34:02.575Z,28.76
2023-04-08T08:34:54.073Z,28.75
2023-04-08T08:35:45.571Z,28.52
2023-04-08T08:36:36.983Z,28.95
2023-04-08T08:37:31.462Z,29.33
2023-04-08T08:38:23.092Z,30.25
2023-04-08T08:39:14.608Z,29.49
2023-04-08T08:40:06.600Z,28.30
2023-04-08T08:41:04.423Z,29.94
2023-04-08T08:41:58.484Z,30.42
2023-04-08T08:42:52.400Z,31.30
2023-04-08T08:43:45.010Z,31.48
2023-04-08T08:44:36.635Z,30.89
2023-04-08T08:45:28.306Z,30.37
2023-04-08T08:46:19.789Z,29.49
2023-04-08T08:47:14.278Z,29.65
2023-04-08T08:48:08.753Z,30.87
2023-04-08T08:49:06.017Z,30.69
2023-04-08T08:50:01.243Z,29.64
2023-04-08T08:50:55.089Z,29.97
2023-04-08T08:51:49.269Z,29.41
2023-04-08T08:52:52.271Z,29.08
2023-04-08T08:53:45.293Z,29.51
2023-04-08T08:54:37.990Z,28.22
2023-04-08T08:55:53.173Z,29.84
2023-04-08T08:56:45.248Z,28.51
2023-04-08T08:57:37.196Z,28.47
2023-04-08T08:58:28.712Z,28.76
2023-04-08T08:59:20.549Z,28.90
2023-04-08T09:00:16.319Z,30.34
2023-04-08T09:01:34.669Z,30.08
2023-04-08T09:02:32.225Z,30.58
2023-04-08T09:03:29.103Z,30.23
2023-04-08T09:04:22.805Z,30.52
2023-04-08T09:05:14.570Z,30.88
2023-04-08T09:06:06.200Z,32.31
2023-04-08T09:07:13.644Z,31.65
2023-04-08T09:08:07.722Z,31.20
2023-04-08T09:08:59.193Z,30.88
2023-04-08T09:09:52.880Z,32.71
2023-04-08T09:10:44.377Z,33.01
2023-04-08T09:11:43.978Z,33.28
2023-04-08T09:12:35.580Z,31.77
2023-04-08T09:13:38.999Z,29.77
2023-04-08T09:14:32.898Z,29.72
2023-04-08T09:15:26.556Z,29.06
2023-04-08T09:16:20.348Z,30.78
2023-04-08T09:17:12.339Z,32.13
2023-04-08T09:18:22.425Z,32.83
2023-04-08T09:19:14.004Z,33.78
2023-04-08T09:20:12.079Z,34.80
2023-04-08T09:21:05.423Z,33.41
2023-04-08T09:22:07.384Z,33.98
2023-04-08T09:23:02.564Z,32.94
2023-04-08T09:23:54.196Z,32.84
2023-04-08T09:24:45.937Z,32.84
2023-04-08T09:25:38.507Z,33.04
2023-04-08T09:26:30.316Z,32.96
2023-04-08T09:27:35.602Z,32.81
2023-04-08T09:28:27.534Z,34.51
2023-04-08T09:29:26.317Z,34.86
2023-04-08T09:30:19.270Z,33.77
2023-04-08T09:31:29.039Z,33.10
2023-04-08T09:32:20.778Z,32.62
2023-04-08T09:33:12.624Z,31.99
2023-04-08T09:34:11.891Z,33.76
2023-04-08T09:35:04.796Z,35.35
2023-04-08T09:35:58.317Z,34.67
2023-04-08T09:36:50.823Z,35.27
2023-04-08T09:37:42.278Z,34.23
2023-04-08T09:38:36.294Z,33.67
2023-04-08T09:39:27.728Z,34.59
2023-04-08T09:40:19.405Z,34.78
2023-04-08T09:41:16.213Z,34.32
2023-04-08T09:42:12.072Z,34.13
2023-04-08T09:43:09.199Z,37.35
2023-04-08T09:44:07.702Z,37.04
2023-04-08T09:45:04.299Z,37.93
2023-04-08T09:46:00.960Z,38.81
2023-04-08T09:47:09.985Z,39.43
2023-04-08T09:48:13.835Z,37.91
2023-04-08T09:49:13.918Z,37.43
2023-04-08T09:50:09.288Z,38.99
2023-04-08T09:51:01.236Z,38.19
2023-04-08T09:52:14.118Z,37.20
2023-04-08T09:53:15.563Z,38.13
2023-04-08T09:54:14.940Z,38.84
2023-04-08T09:55:09.705Z,39.70
2023-04-08T09:56:06.709Z,41.74
2023-04-08T09:57:09.949Z,41.09
2023-04-08T09:58:08.714Z,41.27
2023-04-08T09:59:09.399Z,41.36
2023-04-08T10:00:09.719Z,42.25
2023-04-08T10:01:09.982Z,40.23
2023-04-08T10:02:09.576Z,41.94
2023-04-08T10:03:38.602Z,42.09
2023-04-08T10:04:38.517Z,42.31
2023-04-08T10:05:36.559Z,39.48
2023-04-08T10:06:31.342Z,40.55
2023-04-08T10:07:23.150Z,41.15
2023-04-08T10:08:16.333Z,40.22
2023-04-08T10:09:10.455Z,39.99
2023-04-08T10:10:03.168Z,39.89
2023-04-08T10:10:56.279Z,41.14
2023-04-08T10:11:48.973Z,39.69
2023-04-08T10:12:41.280Z,39.89
2023-04-08T10:13:34.365Z,39.12
2023-04-08T10:14:28.555Z,39.17
2023-04-08T10:15:30.361Z,40.31
2023-04-08T10:16:25.787Z,39.57
2023-04-08T10:17:36.875Z,39.81
2023-04-08T10:18:32.917Z,39.39
2023-04-08T10:19:42.071Z,38.74
2023-04-08T10:20:36.359Z,38.21
2023-04-08T10:21:39.936Z,37.50
2023-04-08T10:22:34.237Z,37.07
2023-04-08T10:23:53.053Z,36.76
2023-04-08T10:25:27.187Z,37.92
2023-04-08T10:26:33.506Z,37.71
2023-04-08T10:27:42.660Z,36.95
2023-04-08T10:28:34.420Z,39.73
2023-04-08T10:29:28.633Z,37.26
2023-04-08T10:30:26.618Z,38.39
2023-04-08T10:31:22.648Z,36.97
2023-04-08T10:32:30.138Z,37.68
2023-04-08T10:33:25.648Z,38.02
2023-04-08T10:34:21.695Z,37.98
2023-04-08T10:35:14.293Z,36.74
2023-04-08T10:36:13.267Z,35.83
2023-04-08T10:37:09.214Z,36.02
2023-04-08T10:38:02.226Z,36.89
2023-04-08T10:38:57.119Z,36.77
2023-04-08T10:39:51.936Z,36.82
2023-04-08T10:40:44.914Z,36.22
2023-04-08T10:41:44.934Z,36.34
2023-04-08T10:42:36.426Z,35.80
2023-04-08T10:43:33.903Z,34.73
2023-04-08T10:44:29.259Z,34.45
2023-04-08T10:45:20.797Z,35.42
2023-04-08T10:46:12.495Z,36.27
2023-04-08T10:47:04.170Z,37.34
2023-04-08T10:47:55.880Z,36.81
2023-04-08T10:49:00.159Z,35.79
2023-04-08T10:49:53.027Z,35.62
2023-04-08T10:50:53.405Z,35.73
2023-04-08T10:51:47.302Z,34.80
2023-04-08T10:52:53.016Z,33.64
2023-04-08T10:53:44.616Z,33.70
2023-04-08T10:54:36.657Z,33.67
2023-04-08T10:55:28.916Z,32.89
2023-04-08T10:56:20.445Z,32.75
2023-04-08T10:57:11.957Z,32.09
2023-04-08T10:58:07.942Z,30.99
2023-04-08T10:59:01.892Z,29.27
2023-04-08T10:59:53.508Z,30.71
2023-04-08T11:00:44.958Z,30.52
2023-04-08T11:01:41.253Z,29.44
2023-04-08T11:02:34.140Z,28.41
2023-04-08T11:03:27.665Z,27.91
2023-04-08T11:04:19.701Z,27.47
2023-04-08T11:05:12.264Z,27.96
2023-04-08T11:06:05.112Z,27.04
2023-04-08T11:06:56.672Z,27.39
2023-04-08T11:07:48.166Z,28.02
2023-04-08T11:08:39.913Z,28.20
2023-04-08T11:09:34.261Z,27.51
2023-04-08T11:10:27.759Z,27.03
2023-04-08T11:11:19.550Z,28.50
2023-04-08T11:12:18.041Z,28.38
2023-04-08T11:13:12.851Z,28.75
2023-04-08T11:14:05.570Z,28.47
2023-04-08T11:14:59.384Z,30.34
2023-04-08T11:15:52.376Z,30.21
2023-04-08T11:16:46.223Z,28.93
2023-04-08T11:17:40.300Z,28.54
2023-04-08T11:18:34.183Z,27.65
2023-04-08T11:19:25.718Z,28.38
2023-04-08T11:20:17.784Z,27.80
2023-04-08T11:21:10.956Z,28.64
2023-04-08T11:22:02.848Z,28.95
2023-04-08T11:22:55.187Z,28.92
2023-04-08T11:23:51.738Z,30.67
2023-04-08T11:24:44.171Z,28.65
2023-04-08T11:25:40.438Z,30.26
2023-04-08T11:26:33.366Z,29.12
2023-04-08T11:27:26.178Z,29.55
2023-04-08T11:28:18.740Z,28.32
2023-04-08T11:29:14.579Z,28.33
2023-04-08T11:30:10.559Z,28.34
2023-04-08T11:31:05.693Z,25.41
2023-04-08T11:31:57.422Z,24.79
2023-04-08T11:32:49.203Z,25.48